Time;durP1;ratioP1;P1;durP2;ratioP2;P2;SDS_P1;SDS_P2;PMS_P1;PMS_P2;Temp;Humidity;BMP_temperature;BMP_pressure;BME280_temperature;BME280_humidity;BME280_pressure;Samples;Min_cycle;Max_cycle;Signal;HPM_P1;HPM_P2
2023/12/02 00:00:23;;;;;;;4.27;3.33;;;;;-0.20;100364.00;;;;5044870;28;20290;-69
2023/12/02 00:03:10;;;;;;;4.70;3.10;;;;;-0.10;100365.00;;;;5044368;28;20227;-69
2023/12/02 00:05:56;;;;;;;11.13;4.03;;;;;-0.10;100361.00;;;;5044324;28;20725;-68
2023/12/02 00:08:44;;;;;;;4.63;3.93;;;;;0.00;100367.00;;;;5041293;28;20232;-69
2023/12/02 00:11:31;;;;;;;5.83;3.80;;;;;0.00;100366.00;;;;5044477;28;20363;-69
2023/12/02 00:14:17;;;;;;;5.93;3.63;;;;;-0.10;100365.00;;;;5038500;28;20228;-69
2023/12/02 00:17:04;;;;;;;6.37;4.37;;;;;-0.10;100366.00;;;;5043888;28;20252;-69
2023/12/02 00:19:50;;;;;;;9.23;4.57;;;;;-0.10;100369.00;;;;5041803;28;20754;-68
2023/12/02 00:22:37;;;;;;;3.40;3.00;;;;;-0.10;100362.00;;;;5043930;28;20368;-72
2023/12/02 00:25:24;;;;;;;6.10;3.33;;;;;-0.20;100364.00;;;;5038263;28;20240;-69
2023/12/02 00:28:11;;;;;;;6.23;3.53;;;;;-0.20;100364.00;;;;5044323;28;20221;-69
2023/12/02 00:30:57;;;;;;;5.17;2.87;;;;;-0.20;100364.00;;;;5041473;28;20810;-70
2023/12/02 00:33:43;;;;;;;3.40;2.70;;;;;-0.30;100354.00;;;;5046901;28;20976;-71
2023/12/02 00:36:32;;;;;;;4.63;3.83;;;;;-0.30;100371.00;;;;5042345;28;20626;-70
2023/12/02 00:39:18;;;;;;;3.87;2.70;;;;;-0.20;100360.00;;;;5046836;28;20279;-69
2023/12/02 00:42:06;;;;;;;6.07;3.30;;;;;-0.30;100362.00;;;;5047195;28;20354;-69
2023/12/02 00:44:52;;;;;;;4.03;2.93;;;;;-0.30;100372.00;;;;5046793;28;20241;-69
2023/12/02 00:47:38;;;;;;;5.63;3.00;;;;;-0.30;100367.00;;;;5048165;28;20693;-69
2023/12/02 00:50:24;;;;;;;6.47;3.97;;;;;-0.40;100361.00;;;;5041397;28;21473;-68
2023/12/02 00:53:11;;;;;;;5.23;3.97;;;;;-0.30;100366.00;;;;5047166;28;20225;-69
2023/12/02 00:55:58;;;;;;;6.20;3.20;;;;;-0.20;100359.00;;;;5046825;28;20922;-69
2023/12/02 00:58:46;;;;;;;4.70;3.03;;;;;-0.30;100367.00;;;;5046987;28;20228;-69
2023/12/02 01:01:32;;;;;;;6.27;3.27;;;;;-0.20;100365.00;;;;5041417;28;20233;-70
2023/12/02 01:04:19;;;;;;;7.63;4.13;;;;;-0.40;100360.00;;;;5042029;28;20228;-68
2023/12/02 01:07:05;;;;;;;4.53;3.43;;;;;-0.30;100371.00;;;;5046065;28;20250;-68
2023/12/02 01:09:52;;;;;;;4.47;3.70;;;;;-0.20;100372.00;;;;5046832;28;20232;-68
2023/12/02 01:12:38;;;;;;;5.77;3.63;;;;;-0.30;100367.00;;;;5046718;28;20236;-70
2023/12/02 01:15:25;;;;;;;9.07;3.90;;;;;-0.20;100366.00;;;;5040880;28;21747;-69
2023/12/02 01:18:11;;;;;;;5.97;3.90;;;;;-0.20;100380.00;;;;5046304;28;20232;-68
2023/12/02 01:20:58;;;;;;;4.50;3.37;;;;;-0.20;100381.00;;;;5043727;28;20248;-69
2023/12/02 01:23:45;;;;;;;8.07;3.20;;;;;-0.20;100389.00;;;;5043361;28;20220;-67
2023/12/02 01:26:31;;;;;;;7.40;4.80;;;;;-0.20;100384.00;;;;5045337;28;20717;-68
2023/12/02 01:29:17;;;;;;;5.77;4.70;;;;;-0.30;100389.00;;;;5045453;28;20224;-69
2023/12/02 01:32:06;;;;;;;7.80;3.10;;;;;-0.30;100381.00;;;;5045252;28;20721;-69
2023/12/02 01:34:52;;;;;;;5.50;3.90;;;;;-0.30;100390.00;;;;5040691;28;20228;-68
2023/12/02 01:37:38;;;;;;;8.93;4.30;;;;;-0.30;100381.00;;;;5044803;28;20228;-68
2023/12/02 01:40:25;;;;;;;5.13;4.60;;;;;-0.40;100388.00;;;;5047713;28;20727;-70
2023/12/02 01:43:23;;;;;;;4.50;3.20;;;;;-0.40;100386.00;;;;5046657;28;20232;-70
2023/12/02 01:46:09;;;;;;;4.80;4.03;;;;;-0.30;100395.00;;;;5038506;28;20609;-65
2023/12/02 01:48:59;;;;;;;6.57;4.13;;;;;-0.40;100384.00;;;;5046085;28;20252;-68
2023/12/02 01:51:45;;;;;;;4.47;3.40;;;;;-0.50;100385.00;;;;5046001;28;20240;-68
2023/12/02 01:54:32;;;;;;;5.50;3.67;;;;;-0.50;100396.00;;;;5040236;28;20362;-70
2023/12/02 01:57:19;;;;;;;7.77;4.23;;;;;-0.40;100398.00;;;;5046282;28;20228;-69
2023/12/02 02:00:07;;;;;;;7.20;3.77;;;;;-0.40;100397.00;;;;5044172;28;20244;-69
2023/12/02 02:02:53;;;;;;;5.53;3.30;;;;;-0.30;100399.00;;;;5044074;28;20246;-70
2023/12/02 02:05:40;;;;;;;5.77;3.73;;;;;-0.30;100393.00;;;;5037401;28;20228;-70
2023/12/02 02:08:27;;;;;;;5.53;4.23;;;;;-0.30;100392.00;;;;5036058;28;20228;-68
2023/12/02 02:11:13;;;;;;;8.00;4.33;;;;;-0.30;100399.00;;;;5029302;28;20643;-69
2023/12/02 02:13:59;;;;;;;8.93;3.87;;;;;-0.30;100404.00;;;;5038629;28;20650;-69
2023/12/02 02:16:45;;;;;;;6.60;3.33;;;;;-0.20;100406.00;;;;5042640;28;20232;-70
2023/12/02 02:19:32;;;;;;;4.00;3.37;;;;;-0.20;100410.00;;;;5039989;28;20236;-70
2023/12/02 02:22:20;;;;;;;7.33;4.37;;;;;-0.20;100404.00;;;;5045186;28;20239;-70
2023/12/02 02:25:07;;;;;;;7.33;3.90;;;;;-0.10;100411.00;;;;5044867;28;20768;-69
2023/12/02 02:27:54;;;;;;;5.30;3.67;;;;;-0.10;100412.00;;;;5045686;28;20314;-68
2023/12/02 02:30:40;;;;;;;5.47;3.63;;;;;-0.30;100411.00;;;;5041025;28;20621;-68
2023/12/02 02:33:27;;;;;;;5.07;3.93;;;;;-0.30;100413.00;;;;5046153;28;20306;-68
2023/12/02 02:36:13;;;;;;;6.93;4.47;;;;;-0.30;100414.00;;;;5044129;28;20755;-69
2023/12/02 02:39:01;;;;;;;5.50;3.60;;;;;-0.40;100409.00;;;;5044854;28;20346;-71
2023/12/02 02:41:47;;;;;;;5.90;3.67;;;;;-0.30;100415.00;;;;5045226;28;20228;-69
2023/12/02 02:44:34;;;;;;;9.00;5.83;;;;;-0.30;100418.00;;;;5039263;28;20602;-69
2023/12/02 02:47:20;;;;;;;7.23;4.40;;;;;-0.30;100418.00;;;;5044870;28;20264;-64
2023/12/02 02:50:08;;;;;;;4.73;3.77;;;;;-0.30;100420.00;;;;5044921;28;20232;-67
2023/12/02 02:52:54;;;;;;;11.17;5.60;;;;;-0.30;100425.00;;;;5041660;28;20348;-70
2023/12/02 02:55:42;;;;;;;7.10;5.07;;;;;-0.30;100419.00;;;;5043926;28;20367;-68
2023/12/02 02:58:30;;;;;;;4.70;3.30;;;;;-0.40;100414.00;;;;5044390;28;20645;-69
2023/12/02 03:01:16;;;;;;;5.27;4.00;;;;;-0.30;100419.00;;;;5042748;28;20611;-70
2023/12/02 03:04:03;;;;;;;6.43;3.43;;;;;-0.30;100423.00;;;;5044457;28;20241;-69
2023/12/02 03:06:49;;;;;;;11.17;4.53;;;;;-0.40;100424.00;;;;5032236;28;20231;-70
2023/12/02 03:09:35;;;;;;;9.97;4.57;;;;;-0.40;100418.00;;;;5044731;28;20231;-68
2023/12/02 03:12:23;;;;;;;5.87;3.87;;;;;-0.40;100420.00;;;;5044269;28;20322;-68
2023/12/02 03:15:10;;;;;;;5.73;3.30;;;;;-0.40;100416.00;;;;5042085;28;20299;-69
2023/12/02 03:17:57;;;;;;;5.50;4.40;;;;;-0.40;100427.00;;;;5041294;28;20233;-69
2023/12/02 03:20:44;;;;;;;6.70;3.90;;;;;-0.40;100432.00;;;;5044005;28;20654;-69
2023/12/02 03:23:30;;;;;;;6.47;3.80;;;;;-0.30;100424.00;;;;5044274;28;20271;-67
2023/12/02 03:26:17;;;;;;;5.50;3.50;;;;;-0.40;100423.00;;;;5044694;28;20761;-70
2023/12/02 03:29:05;;;;;;;5.30;3.37;;;;;-0.30;100424.00;;;;5039860;28;20291;-68
2023/12/02 03:31:51;;;;;;;5.33;3.40;;;;;-0.40;100430.00;;;;5039548;28;20240;-69
2023/12/02 03:34:38;;;;;;;3.77;2.57;;;;;-0.40;100425.00;;;;5045110;28;20303;-68
2023/12/02 03:37:24;;;;;;;9.60;4.70;;;;;-0.30;100433.00;;;;5044437;28;20224;-68
2023/12/02 03:40:11;;;;;;;11.07;6.03;;;;;-0.40;100432.00;;;;5044317;28;20240;-68
2023/12/02 03:42:58;;;;;;;7.03;3.63;;;;;-0.60;100429.00;;;;5045035;28;20244;-69
2023/12/02 03:45:46;;;;;;;6.33;3.83;;;;;-0.40;100437.00;;;;5038566;28;20216;-69
2023/12/02 03:48:33;;;;;;;5.83;3.70;;;;;-0.30;100442.00;;;;5038103;28;20236;-69
2023/12/02 03:51:19;;;;;;;5.73;4.00;;;;;-0.50;100435.00;;;;5044102;28;20240;-69
2023/12/02 03:54:05;;;;;;;10.27;3.33;;;;;-0.50;100430.00;;;;5044943;28;20236;-69
2023/12/02 03:56:52;;;;;;;4.57;3.63;;;;;-0.40;100447.00;;;;5044596;28;20228;-68
2023/12/02 03:59:40;;;;;;;6.57;4.10;;;;;-0.40;100430.00;;;;5040840;28;20259;-71
2023/12/02 04:02:27;;;;;;;5.27;4.17;;;;;-0.30;100442.00;;;;5043673;28;20236;-68
2023/12/02 04:05:14;;;;;;;4.23;3.83;;;;;-0.30;100439.00;;;;5042031;28;20241;-68
2023/12/02 04:08:00;;;;;;;3.80;3.10;;;;;-0.30;100456.00;;;;5046796;28;20262;-68
2023/12/02 04:10:47;;;;;;;5.63;3.47;;;;;-0.20;100447.00;;;;5044648;28;20225;-70
2023/12/02 04:13:34;;;;;;;8.37;4.50;;;;;-0.40;100453.00;;;;5046622;28;20237;-69
2023/12/02 04:16:20;;;;;;;7.13;4.63;;;;;-0.40;100446.00;;;;5047732;28;20236;-70
2023/12/02 04:19:12;;;;;;;5.87;4.37;;;;;-0.40;100446.00;;;;5035697;28;20604;-68
2023/12/02 04:21:59;;;;;;;6.57;4.50;;;;;-0.60;100455.00;;;;5045550;28;20240;-68
2023/12/02 04:24:46;;;;;;;3.63;2.97;;;;;-0.50;100467.00;;;;5048282;28;20240;-68
2023/12/02 04:27:32;;;;;;;6.47;3.27;;;;;-0.40;100460.00;;;;5048325;28;20597;-68
2023/12/02 04:30:18;;;;;;;7.93;4.20;;;;;-0.40;100461.00;;;;5045666;28;20240;-68
2023/12/02 04:33:05;;;;;;;5.97;4.20;;;;;-0.30;100471.00;;;;5044517;28;20298;-68
2023/12/02 04:35:52;;;;;;;6.37;3.87;;;;;-0.30;100467.00;;;;5048070;28;20236;-69
2023/12/02 04:38:39;;;;;;;7.33;4.50;;;;;-0.30;100475.00;;;;5045264;28;20599;-68
2023/12/02 04:41:25;;;;;;;4.80;3.17;;;;;-0.30;100476.00;;;;5048206;28;20240;-69
2023/12/02 04:44:12;;;;;;;10.20;4.30;;;;;-0.30;100476.00;;;;5044745;28;20737;-70
2023/12/02 04:46:58;;;;;;;6.43;3.07;;;;;-0.10;100477.00;;;;5045523;28;20233;-67
2023/12/02 04:49:44;;;;;;;5.70;3.63;;;;;-0.20;100485.00;;;;5046634;28;20760;-71
2023/12/02 04:52:33;;;;;;;8.90;4.47;;;;;-0.20;100482.00;;;;5035904;28;20233;-69
2023/12/02 04:55:20;;;;;;;5.57;4.00;;;;;-0.20;100486.00;;;;5047443;28;20240;-67
2023/12/02 04:58:06;;;;;;;8.40;5.40;;;;;-0.30;100477.00;;;;5046785;28;20271;-67
2023/12/02 05:00:53;;;;;;;4.10;3.63;;;;;-0.40;100479.00;;;;5048124;28;20531;-67
2023/12/02 05:03:40;;;;;;;6.90;4.27;;;;;-0.30;100488.00;;;;5048131;28;20299;-71
2023/12/02 05:06:27;;;;;;;6.63;3.90;;;;;-0.20;100492.00;;;;5046339;28;20291;-68
2023/12/02 05:09:16;;;;;;;6.30;4.70;;;;;-0.30;100489.00;;;;5045901;28;20330;-65
2023/12/02 05:12:02;;;;;;;8.97;4.07;;;;;-0.30;100484.00;;;;5043669;28;20237;-66
2023/12/02 05:14:48;;;;;;;3.67;2.30;;;;;-0.40;100485.00;;;;5041330;28;20327;-67
2023/12/02 05:17:34;;;;;;;6.70;4.20;;;;;-0.30;100491.00;;;;5046251;28;20777;-69
2023/12/02 05:20:21;;;;;;;5.13;3.43;;;;;-0.50;100495.00;;;;5045239;28;20228;-68
2023/12/02 05:23:07;;;;;;;6.20;3.90;;;;;-0.40;100494.00;;;;5047364;28;20726;-67
2023/12/02 05:25:55;;;;;;;8.67;4.00;;;;;-0.50;100489.00;;;;5041140;28;20307;-68
2023/12/02 05:28:41;;;;;;;5.80;4.30;;;;;-0.40;100504.00;;;;5045005;28;20721;-70
2023/12/02 05:31:28;;;;;;;5.97;3.67;;;;;-0.40;100501.00;;;;5045243;28;20224;-69
2023/12/02 05:34:14;;;;;;;4.07;3.50;;;;;-0.40;100498.00;;;;5046727;28;20224;-69
2023/12/02 05:37:00;;;;;;;6.47;3.57;;;;;-0.40;100505.00;;;;5046921;28;20733;-69
2023/12/02 05:39:47;;;;;;;7.60;4.97;;;;;-0.50;100496.00;;;;5039730;28;20603;-69
2023/12/02 05:42:35;;;;;;;6.70;4.47;;;;;-0.50;100510.00;;;;5046110;28;20232;-68
2023/12/02 05:45:21;;;;;;;7.07;4.23;;;;;-0.60;100511.00;;;;5046362;28;20216;-68
2023/12/02 05:48:07;;;;;;;6.30;4.03;;;;;-0.60;100515.00;;;;5046739;28;20305;-68
2023/12/02 05:50:54;;;;;;;12.87;4.53;;;;;-0.60;100517.00;;;;5047200;28;20224;-68
2023/12/02 05:53:41;;;;;;;7.03;3.63;;;;;-0.70;100516.00;;;;5046388;28;20279;-69
2023/12/02 05:56:27;;;;;;;4.73;3.37;;;;;-0.60;100513.00;;;;5046492;28;20224;-67
2023/12/02 05:59:17;;;;;;;6.50;4.07;;;;;-0.70;100517.00;;;;5046696;28;20312;-70
2023/12/02 06:02:04;;;;;;;3.77;3.47;;;;;-0.70;100520.00;;;;5043919;28;20236;-69
2023/12/02 06:04:50;;;;;;;5.87;4.13;;;;;-0.70;100524.00;;;;5045482;28;20240;-69
2023/12/02 06:07:36;;;;;;;8.57;4.20;;;;;-0.60;100525.00;;;;5046261;28;20228;-69
2023/12/02 06:10:22;;;;;;;5.20;4.37;;;;;-0.60;100533.00;;;;5046882;28;20232;-68
2023/12/02 06:13:09;;;;;;;5.33;3.77;;;;;-0.60;100539.00;;;;5039728;28;20347;-67
2023/12/02 06:15:56;;;;;;;5.27;4.20;;;;;-0.60;100528.00;;;;5038278;28;20260;-70
2023/12/02 06:18:43;;;;;;;6.93;3.93;;;;;-0.60;100521.00;;;;5045458;28;20236;-67
2023/12/02 06:21:29;;;;;;;8.57;4.67;;;;;-0.60;100529.00;;;;5046330;28;20697;-68
2023/12/02 06:24:16;;;;;;;5.87;4.50;;;;;-0.60;100527.00;;;;5040696;28;20240;-69
2023/12/02 06:27:02;;;;;;;6.13;3.60;;;;;-0.60;100526.00;;;;5041381;28;20599;-68
2023/12/02 06:29:49;;;;;;;6.80;4.23;;;;;-0.60;100524.00;;;;5035008;28;20232;-68
2023/12/02 06:32:36;;;;;;;6.30;3.90;;;;;-0.60;100531.00;;;;5044219;28;20240;-70
2023/12/02 06:35:23;;;;;;;6.87;4.70;;;;;-0.50;100528.00;;;;5042375;28;20313;-69
2023/12/02 06:38:09;;;;;;;7.50;4.10;;;;;-0.70;100530.00;;;;5043252;28;20308;-69
2023/12/02 06:40:56;;;;;;;5.43;4.00;;;;;-0.60;100531.00;;;;5040238;28;20275;-68
2023/12/02 06:43:42;;;;;;;7.17;3.80;;;;;-0.60;100535.00;;;;5045575;28;20224;-67
2023/12/02 06:46:28;;;;;;;10.50;4.70;;;;;-0.50;100538.00;;;;5043173;28;20220;-68
2023/12/02 06:49:16;;;;;;;7.20;4.70;;;;;-0.50;100549.00;;;;5045083;28;20229;-69
2023/12/02 06:52:02;;;;;;;5.07;4.60;;;;;-0.50;100560.00;;;;5038265;28;20232;-69
2023/12/02 06:54:49;;;;;;;6.90;3.87;;;;;-0.50;100549.00;;;;5043130;28;20776;-70
2023/12/02 06:57:38;;;;;;;8.17;5.10;;;;;-0.60;100560.00;;;;5040436;28;20225;-68
2023/12/02 07:00:25;;;;;;;6.13;4.50;;;;;-0.60;100567.00;;;;5045469;28;20231;-69
2023/12/02 07:03:11;;;;;;;13.07;4.53;;;;;-0.60;100569.00;;;;5027804;28;20232;-70
2023/12/02 07:05:59;;;;;;;5.53;3.97;;;;;-0.50;100578.00;;;;5044704;28;20236;-68
2023/12/02 07:08:45;;;;;;;6.00;4.10;;;;;-0.50;100573.00;;;;5044029;28;20240;-68
2023/12/02 07:11:32;;;;;;;10.00;4.80;;;;;-0.60;100589.00;;;;5042820;28;20725;-68
2023/12/02 07:14:18;;;;;;;8.40;4.50;;;;;-0.60;100590.00;;;;5041856;28;20236;-68
2023/12/02 07:17:05;;;;;;;5.27;3.40;;;;;-0.60;100590.00;;;;5039402;28;20232;-68
2023/12/02 07:19:51;;;;;;;6.00;4.47;;;;;-0.60;100599.00;;;;5044245;28;20244;-69
2023/12/02 07:22:39;;;;;;;3.17;2.80;;;;;-0.60;100594.00;;;;5041291;28;20233;-68
2023/12/02 07:25:26;;;;;;;7.80;4.67;;;;;-0.50;100600.00;;;;5044643;28;20233;-67
2023/12/02 07:28:12;;;;;;;7.83;4.93;;;;;-0.60;100611.00;;;;5040187;28;20282;-69
2023/12/02 07:30:58;;;;;;;7.67;4.27;;;;;-0.50;100590.00;;;;5040035;28;20609;-68
2023/12/02 07:33:45;;;;;;;11.07;3.83;;;;;-0.50;100602.00;;;;5038442;28;20228;-68
2023/12/02 07:36:31;;;;;;;9.80;5.00;;;;;-0.50;100610.00;;;;5041347;28;20236;-68
2023/12/02 07:39:19;;;;;;;6.00;4.67;;;;;-0.60;100605.00;;;;5044889;28;20221;-70
2023/12/02 07:42:05;;;;;;;7.73;4.70;;;;;-0.70;100624.00;;;;5039367;28;20251;-68
2023/12/02 07:44:52;;;;;;;8.43;5.97;;;;;-0.80;100617.00;;;;5037509;28;20239;-70
2023/12/02 07:47:38;;;;;;;7.03;4.30;;;;;-0.70;100615.00;;;;5042664;28;20817;-70
2023/12/02 07:50:25;;;;;;;4.73;2.77;;;;;-0.70;100621.00;;;;5044794;28;20235;-71
2023/12/02 07:53:12;;;;;;;8.03;4.53;;;;;-0.80;100622.00;;;;5039220;28;20248;-69
2023/12/02 07:56:00;;;;;;;10.20;4.43;;;;;-0.90;100621.00;;;;5042490;28;20721;-70
2023/12/02 07:58:46;;;;;;;5.63;4.27;;;;;-0.90;100618.00;;;;5041436;28;20224;-68
2023/12/02 08:01:33;;;;;;;3.50;3.13;;;;;-0.90;100624.00;;;;5044580;28;20894;-68
2023/12/02 08:04:20;;;;;;;6.03;4.10;;;;;-0.90;100622.00;;;;5043497;28;20763;-69
2023/12/02 08:07:07;;;;;;;7.13;3.63;;;;;-1.00;100617.00;;;;5033886;28;20260;-70
2023/12/02 08:09:54;;;;;;;5.57;4.07;;;;;-0.90;100621.00;;;;5044531;28;20236;-71
2023/12/02 08:12:43;;;;;;;5.50;4.60;;;;;-0.80;100626.00;;;;5043953;28;20779;-69
2023/12/02 08:15:30;;;;;;;6.83;4.27;;;;;-0.80;100631.00;;;;5040056;28;20236;-69
2023/12/02 08:18:18;;;;;;;10.37;4.07;;;;;-0.70;100630.00;;;;5043885;28;20855;-70
2023/12/02 08:21:05;;;;;;;6.60;3.67;;;;;-0.80;100633.00;;;;5040387;28;20251;-69
2023/12/02 08:23:51;;;;;;;6.80;3.60;;;;;-0.70;100632.00;;;;5044950;28;20318;-69
2023/12/02 08:26:38;;;;;;;5.70;3.97;;;;;-0.70;100646.00;;;;5042206;28;20236;-69
2023/12/02 08:29:25;;;;;;;8.43;3.53;;;;;-0.80;100653.00;;;;5040278;28;20276;-69
2023/12/02 08:32:12;;;;;;;7.70;3.70;;;;;-0.80;100649.00;;;;5019801;28;20241;-69
2023/12/02 08:34:58;;;;;;;4.70;4.13;;;;;-0.70;100660.00;;;;5024515;28;20352;-70
2023/12/02 08:37:45;;;;;;;6.17;4.10;;;;;-0.80;100660.00;;;;5042309;28;20232;-69
2023/12/02 08:40:31;;;;;;;6.77;3.90;;;;;-0.80;100662.00;;;;5044187;28;20630;-69
2023/12/02 08:43:17;;;;;;;6.57;5.10;;;;;-0.70;100676.00;;;;5039360;28;20236;-70
2023/12/02 08:46:05;;;;;;;12.13;5.63;;;;;-0.60;100670.00;;;;5036770;28;20323;-69
2023/12/02 08:48:51;;;;;;;11.03;4.50;;;;;-0.60;100670.00;;;;5044076;28;20236;-68
2023/12/02 08:51:39;;;;;;;9.17;5.27;;;;;-0.60;100674.00;;;;5043954;28;20233;-67
2023/12/02 08:54:25;;;;;;;10.53;4.80;;;;;-0.50;100679.00;;;;5045600;28;20228;-70
2023/12/02 08:57:11;;;;;;;7.67;4.03;;;;;-0.50;100674.00;;;;5034503;28;20237;-72
2023/12/02 08:59:58;;;;;;;3.70;2.73;;;;;-0.40;100678.00;;;;5047575;28;20359;-69
2023/12/02 09:02:45;;;;;;;12.63;6.43;;;;;-0.40;100677.00;;;;5046049;28;20233;-67
2023/12/02 09:05:31;;;;;;;7.50;4.67;;;;;-0.30;100682.00;;;;5048945;28;20287;-69
2023/12/02 09:08:18;;;;;;;8.57;4.30;;;;;-0.20;100680.00;;;;5042071;28;20387;-71
2023/12/02 09:11:04;;;;;;;8.50;5.13;;;;;-0.20;100678.00;;;;5045995;28;20240;-70
2023/12/02 09:13:51;;;;;;;5.93;4.50;;;;;-0.20;100680.00;;;;5041936;28;20327;-70
2023/12/02 09:16:46;;;;;;;8.07;3.90;;;;;-0.20;100690.00;;;;5049239;28;20709;-68
2023/12/02 09:19:54;;;;;;;8.27;5.00;;;;;-0.10;100685.00;;;;5038475;28;20225;-70
2023/12/02 09:22:47;;;;;;;7.77;5.17;;;;;-0.10;100690.00;;;;5033863;28;20260;-70
2023/12/02 09:25:36;;;;;;;10.53;5.37;;;;;-0.10;100695.00;;;;5044394;28;20272;-68
2023/12/02 09:28:26;;;;;;;10.83;6.43;;;;;-0.10;100706.00;;;;5041204;28;20240;-68
2023/12/02 09:31:14;;;;;;;7.20;5.13;;;;;-0.10;100706.00;;;;5044366;28;20679;-70
2023/12/02 09:34:02;;;;;;;8.50;3.07;;;;;-0.10;100711.00;;;;5043896;28;20299;-69
2023/12/02 09:36:50;;;;;;;5.97;4.67;;;;;-0.10;100712.00;;;;5040180;28;20248;-70
2023/12/02 09:40:17;;;;;;;12.03;5.13;;;;;0.00;100703.00;;;;5039715;28;20232;-70
2023/12/02 09:43:18;;;;;;;9.50;4.60;;;;;0.00;100708.00;;;;5046009;28;20386;-72
2023/12/02 09:46:20;;;;;;;5.33;3.87;;;;;0.10;100705.00;;;;5046095;28;20235;-70
2023/12/02 09:49:27;;;;;;;8.13;5.63;;;;;0.10;100712.00;;;;5034311;28;20235;-69
2023/12/02 09:52:52;;;;;;;11.90;3.97;;;;;0.20;100713.00;;;;5038722;28;20244;-69
2023/12/02 09:55:51;;;;;;;9.93;5.90;;;;;0.20;100713.00;;;;5038198;28;20232;-69
2023/12/02 09:58:42;;;;;;;4.97;4.07;;;;;0.30;100713.00;;;;5042777;28;20717;-69
2023/12/02 10:01:41;;;;;;;8.47;3.57;;;;;0.40;100712.00;;;;5040423;28;20918;-66
2023/12/02 10:04:43;;;;;;;5.50;4.00;;;;;0.40;100713.00;;;;5046207;28;20310;-68
2023/12/02 10:07:44;;;;;;;9.00;5.33;;;;;0.50;100712.00;;;;5040072;28;20232;-70
2023/12/02 10:10:39;;;;;;;8.50;4.43;;;;;0.50;100710.00;;;;5040392;28;20236;-70
2023/12/02 10:13:38;;;;;;;6.10;4.47;;;;;0.40;100711.00;;;;5044420;28;20228;-70
2023/12/02 10:16:30;;;;;;;6.97;4.33;;;;;0.60;100714.00;;;;5041455;28;20232;-68
2023/12/02 10:19:22;;;;;;;5.83;4.30;;;;;0.60;100699.00;;;;5045015;28;20283;-69
2023/12/02 10:22:11;;;;;;;9.20;4.20;;;;;0.80;100701.00;;;;5045089;28;20228;-70
2023/12/02 10:25:04;;;;;;;7.70;3.93;;;;;0.90;100699.00;;;;5040004;28;20231;-72
2023/12/02 10:27:52;;;;;;;6.83;4.97;;;;;0.90;100695.00;;;;5032579;28;20230;-69
2023/12/02 10:30:46;;;;;;;9.80;4.97;;;;;1.00;100695.00;;;;5037739;28;20613;-68
2023/12/02 10:33:38;;;;;;;5.10;3.53;;;;;1.00;100699.00;;;;5045592;28;20266;-66
2023/12/02 10:36:28;;;;;;;8.63;4.13;;;;;1.00;100696.00;;;;5038962;28;20359;-70
2023/12/02 10:39:22;;;;;;;10.03;5.13;;;;;1.10;100691.00;;;;5044829;28;20229;-70
2023/12/02 10:42:14;;;;;;;7.10;5.17;;;;;1.20;100697.00;;;;5045451;28;20237;-70
2023/12/02 10:45:04;;;;;;;9.07;5.13;;;;;1.10;100699.00;;;;5045458;28;20232;-70
2023/12/02 10:47:53;;;;;;;10.07;5.10;;;;;1.30;100706.00;;;;5042246;28;20279;-70
2023/12/02 10:50:41;;;;;;;10.83;6.33;;;;;1.30;100720.00;;;;5041261;28;20368;-70
2023/12/02 10:53:30;;;;;;;7.07;3.73;;;;;1.30;100710.00;;;;5043454;28;20235;-70
2023/12/02 10:56:23;;;;;;;12.43;5.53;;;;;1.30;100710.00;;;;5045662;28;20299;-70
2023/12/02 10:59:10;;;;;;;8.53;5.20;;;;;1.40;100711.00;;;;5045074;28;20356;-67
2023/12/02 11:02:02;;;;;;;10.33;5.37;;;;;1.50;100708.00;;;;5042914;28;20232;-69
2023/12/02 11:05:02;;;;;;;8.83;4.70;;;;;1.70;100709.00;;;;5045433;28;20923;-70
2023/12/02 11:07:52;;;;;;;10.30;5.30;;;;;1.80;100703.00;;;;5041559;28;20240;-72
2023/12/02 11:10:46;;;;;;;9.07;4.37;;;;;1.90;100705.00;;;;5038828;28;20242;-70
2023/12/02 11:13:34;;;;;;;9.33;5.13;;;;;2.20;100710.00;;;;5042533;28;20233;-70
2023/12/02 11:16:25;;;;;;;9.17;5.03;;;;;2.30;100709.00;;;;5031962;28;20222;-69
2023/12/02 11:19:24;;;;;;;9.17;5.60;;;;;2.30;100707.00;;;;5060735;28;20233;-69
2023/12/02 11:22:32;;;;;;;5.57;3.47;;;;;2.10;100712.00;;;;5060260;28;20297;-72
2023/12/02 11:25:38;;;;;;;9.83;4.43;;;;;2.00;100712.00;;;;5063036;28;20233;-71
2023/12/02 11:28:34;;;;;;;9.40;5.23;;;;;1.90;100720.00;;;;5065394;28;20305;-72
2023/12/02 11:31:32;;;;;;;9.63;4.60;;;;;1.90;100713.00;;;;5058550;28;20312;-71
2023/12/02 11:34:33;;;;;;;12.73;5.47;;;;;2.10;100714.00;;;;5061146;28;20251;-75
2023/12/02 11:37:32;;;;;;;8.80;4.37;;;;;2.20;100704.00;;;;5059891;28;20230;-71
2023/12/02 11:40:22;;;;;;;10.63;6.10;;;;;2.20;100704.00;;;;5051436;28;20280;-69
2023/12/02 11:43:16;;;;;;;9.60;4.67;;;;;2.30;100709.00;;;;5044475;28;20284;-70
2023/12/02 11:46:05;;;;;;;9.17;4.23;;;;;2.30;100720.00;;;;5042257;28;20242;-69
2023/12/02 11:49:02;;;;;;;10.50;4.97;;;;;2.30;100722.00;;;;5044901;28;20232;-69
2023/12/02 11:52:01;;;;;;;10.50;5.27;;;;;2.30;100721.00;;;;5040809;28;20246;-69
2023/12/02 11:55:03;;;;;;;12.13;5.30;;;;;2.20;100713.00;;;;5046069;28;20320;-68
2023/12/02 11:58:04;;;;;;;8.80;5.07;;;;;2.20;100707.00;;;;5029350;28;20311;-69
2023/12/02 12:01:05;;;;;;;8.50;4.70;;;;;2.10;100709.00;;;;5041196;28;20224;-69
2023/12/02 12:04:09;;;;;;;8.63;4.30;;;;;2.00;100713.00;;;;5041438;28;20314;-71
2023/12/02 12:07:07;;;;;;;8.90;4.60;;;;;2.10;100726.00;;;;5045033;28;20229;-68
2023/12/02 12:10:04;;;;;;;8.23;5.27;;;;;2.40;100717.00;;;;5043532;28;20602;-71
2023/12/02 12:12:54;;;;;;;8.87;5.43;;;;;2.40;100715.00;;;;5042750;28;20238;-67
2023/12/02 12:15:42;;;;;;;9.67;5.13;;;;;2.40;100715.00;;;;5044469;28;20233;-68
2023/12/02 12:18:28;;;;;;;13.10;4.87;;;;;2.30;100710.00;;;;5044731;28;20230;-72
2023/12/02 12:21:15;;;;;;;9.60;5.73;;;;;2.20;100721.00;;;;5043032;28;20244;-74
2023/12/02 12:24:01;;;;;;;9.30;5.23;;;;;2.20;100728.00;;;;5045273;28;20223;-72
2023/12/02 12:26:49;;;;;;;7.27;4.27;;;;;2.40;100712.00;;;;5043456;28;20221;-72
2023/12/02 12:29:35;;;;;;;10.37;4.60;;;;;2.40;100718.00;;;;5046759;28;20223;-72
2023/12/02 12:32:22;;;;;;;8.07;3.93;;;;;2.50;100722.00;;;;5048078;28;21049;-73
2023/12/02 12:35:11;;;;;;;9.33;5.83;;;;;2.40;100740.00;;;;5048653;28;20613;-73
2023/12/02 12:37:57;;;;;;;8.47;4.90;;;;;2.30;100727.00;;;;5048540;28;20221;-73
2023/12/02 12:40:45;;;;;;;12.43;5.40;;;;;2.20;100736.00;;;;5045194;28;20371;-72
2023/12/02 12:43:37;;;;;;;9.97;5.40;;;;;2.10;100737.00;;;;5042685;28;20701;-72
2023/12/02 12:46:26;;;;;;;9.70;4.97;;;;;2.20;100743.00;;;;5048399;28;20227;-74
2023/12/02 12:49:20;;;;;;;5.77;4.43;;;;;2.10;100747.00;;;;5046821;28;20235;-72
2023/12/02 12:52:09;;;;;;;12.23;5.93;;;;;2.20;100753.00;;;;5044751;28;20749;-72
2023/12/02 12:55:00;;;;;;;9.87;6.33;;;;;2.20;100751.00;;;;5046823;28;20225;-72
2023/12/02 12:57:53;;;;;;;5.80;4.77;;;;;2.30;100764.00;;;;5041221;28;20225;-72
2023/12/02 13:00:45;;;;;;;9.17;4.90;;;;;2.40;100758.00;;;;5040303;28;20229;-70
2023/12/02 13:03:46;;;;;;;10.00;4.87;;;;;2.40;100764.00;;;;5047864;28;20350;-70
2023/12/02 13:06:43;;;;;;;8.07;4.93;;;;;2.50;100766.00;;;;5045349;28;20228;-70
2023/12/02 13:09:32;;;;;;;11.83;5.53;;;;;2.60;100768.00;;;;5048044;28;20238;-70
2023/12/02 13:12:22;;;;;;;7.07;4.33;;;;;2.50;100771.00;;;;5046106;28;20238;-70
2023/12/02 13:15:14;;;;;;;8.70;5.20;;;;;2.40;100772.00;;;;5045935;28;20236;-70
2023/12/02 13:18:03;;;;;;;7.50;4.40;;;;;2.30;100777.00;;;;5039364;28;20312;-71
2023/12/02 13:20:49;;;;;;;7.63;5.37;;;;;2.20;100786.00;;;;5045942;28;20225;-70
2023/12/02 13:23:36;;;;;;;10.07;4.97;;;;;2.30;100795.00;;;;5042841;28;20323;-70
2023/12/02 13:26:32;;;;;;;7.10;4.57;;;;;2.20;100793.00;;;;5046118;28;20299;-71
2023/12/02 13:29:22;;;;;;;9.77;5.40;;;;;2.20;100794.00;;;;5045351;28;20234;-67
2023/12/02 13:32:11;;;;;;;7.67;5.00;;;;;2.20;100794.00;;;;5044285;28;20244;-74
2023/12/02 13:35:04;;;;;;;9.13;4.67;;;;;2.30;100796.00;;;;5037519;28;20230;-71
2023/12/02 13:38:01;;;;;;;11.93;5.80;;;;;2.30;100792.00;;;;5039685;28;20232;-71
2023/12/02 13:40:53;;;;;;;9.63;4.87;;;;;2.20;100785.00;;;;5042009;28;20356;-72
2023/12/02 13:43:49;;;;;;;7.73;4.87;;;;;2.20;100783.00;;;;5041349;28;20846;-71
2023/12/02 13:46:42;;;;;;;6.33;4.23;;;;;2.20;100795.00;;;;5048185;28;20272;-71
2023/12/02 13:49:32;;;;;;;11.83;6.23;;;;;2.20;100796.00;;;;5047028;28;20238;-70
2023/12/02 13:52:39;;;;;;;8.73;5.23;;;;;2.20;100793.00;;;;5046952;28;20246;-71
2023/12/02 13:55:51;;;;;;;9.17;4.67;;;;;2.20;100789.00;;;;5046520;28;20271;-71
2023/12/02 13:58:41;;;;;;;7.47;4.70;;;;;2.20;100801.00;;;;5045783;28;20320;-71